ABR829 KDAB-KSAN
Flight info
| Callsign | ABR829 |
|---|---|
| Flight time | 1h 52m |
| Altitude | 32000 |
| Route | ROYES7 CRG TAY CEW J50 AEX J58 FUZ J4 ABI J66 EWM J4 SSO J50 GBN HOGGZ LUCKI1 |
| Aircraft | B742/H-SDE3FGHIM1M2RWXY/LB1 |
Departure
| Time | 2026-04-18 03:46 |
|---|---|
| Airport | Daytona Beach International Airport (KDAB) |
Arrival
| Time | 2026-04-18 05:38 |
|---|---|
| Airport | San Diego International Airport (KSAN) |
| Time | Latitude | Longitude | Altitude | Speed | Heading |
|---|---|---|---|---|---|
| 2026-04-18 03:15 | 29.18592 | -81.05639 | 36 ft | 0 kts | 249° |
| 2026-04-18 03:28 | 29.18592 | -81.05638 | 36 ft | 1 kts | 249° |
| 2026-04-18 03:28 | 29.18596 | -81.05624 | 36 ft | 2 kts | 249° |
| 2026-04-18 03:29 | 29.18602 | -81.05607 | 36 ft | 2 kts | 249° |
| 2026-04-18 03:29 | 29.18608 | -81.05591 | 36 ft | 2 kts | 237° |
| 2026-04-18 03:29 | 29.18618 | -81.05579 | 36 ft | 2 kts | 212° |
| 2026-04-18 03:29 | 29.18631 | -81.05573 | 36 ft | 2 kts | 188° |
| 2026-04-18 03:30 | 29.18645 | -81.05574 | 36 ft | 2 kts | 165° |
| 2026-04-18 03:30 | 29.18659 | -81.05580 | 36 ft | 2 kts | 154° |
| 2026-04-18 03:30 | 29.18670 | -81.05586 | 36 ft | 0 kts | 155° |
| 2026-04-18 03:30 | 29.18671 | -81.05587 | 36 ft | 0 kts | 155° |
| 2026-04-18 03:34 | 29.18670 | -81.05586 | 36 ft | 1 kts | 155° |
| 2026-04-18 03:35 | 29.18659 | -81.05581 | 36 ft | 3 kts | 155° |
| 2026-04-18 03:35 | 29.18626 | -81.05561 | 36 ft | 7 kts | 152° |
| 2026-04-18 03:35 | 29.18571 | -81.05529 | 36 ft | 10 kts | 154° |
| 2026-04-18 03:35 | 29.18498 | -81.05492 | 36 ft | 12 kts | 157° |
| 2026-04-18 03:36 | 29.18424 | -81.05456 | 36 ft | 11 kts | 157° |
| 2026-04-18 03:36 | 29.18402 | -81.05446 | 36 ft | 0 kts | 158° |
| 2026-04-18 03:36 | 29.18391 | -81.05441 | 36 ft | 4 kts | 167° |
| 2026-04-18 03:36 | 29.18354 | -81.05454 | 36 ft | 6 kts | 223° |
| 2026-04-18 03:37 | 29.18329 | -81.05500 | 36 ft | 8 kts | 243° |
| 2026-04-18 03:37 | 29.18301 | -81.05570 | 36 ft | 10 kts | 245° |
| 2026-04-18 03:37 | 29.18267 | -81.05656 | 36 ft | 13 kts | 245° |
| 2026-04-18 03:37 | 29.18223 | -81.05760 | 36 ft | 15 kts | 245° |
| 2026-04-18 03:38 | 29.18174 | -81.05881 | 35 ft | 18 kts | 245° |
| 2026-04-18 03:38 | 29.18118 | -81.06025 | 33 ft | 20 kts | 246° |
| 2026-04-18 03:38 | 29.18059 | -81.06170 | 33 ft | 19 kts | 245° |
| 2026-04-18 03:38 | 29.18003 | -81.06306 | 33 ft | 18 kts | 245° |
| 2026-04-18 03:39 | 29.17951 | -81.06435 | 33 ft | 17 kts | 245° |
| 2026-04-18 03:39 | 29.17903 | -81.06556 | 33 ft | 16 kts | 245° |
| 2026-04-18 03:39 | 29.17856 | -81.06671 | 33 ft | 15 kts | 245° |
| 2026-04-18 03:39 | 29.17813 | -81.06779 | 33 ft | 14 kts | 245° |
| 2026-04-18 03:40 | 29.17773 | -81.06879 | 33 ft | 13 kts | 245° |
| 2026-04-18 03:40 | 29.17734 | -81.06973 | 33 ft | 12 kts | 245° |
| 2026-04-18 03:40 | 29.17699 | -81.07061 | 33 ft | 12 kts | 245° |
| 2026-04-18 03:40 | 29.17662 | -81.07153 | 33 ft | 12 kts | 246° |
| 2026-04-18 03:41 | 29.17624 | -81.07246 | 33 ft | 12 kts | 245° |
| 2026-04-18 03:41 | 29.17586 | -81.07340 | 33 ft | 12 kts | 243° |
| 2026-04-18 03:41 | 29.17543 | -81.07426 | 33 ft | 11 kts | 239° |
| 2026-04-18 03:41 | 29.17505 | -81.07504 | 33 ft | 10 kts | 242° |
| 2026-04-18 03:42 | 29.17475 | -81.07568 | 33 ft | 5 kts | 240° |
| 2026-04-18 03:42 | 29.17460 | -81.07597 | 33 ft | 3 kts | 240° |
| 2026-04-18 03:42 | 29.17439 | -81.07629 | 33 ft | 5 kts | 222° |
| 2026-04-18 03:42 | 29.17407 | -81.07648 | 33 ft | 5 kts | 196° |
| 2026-04-18 03:43 | 29.17374 | -81.07645 | 33 ft | 4 kts | 158° |
| 2026-04-18 03:43 | 29.17343 | -81.07629 | 33 ft | 4 kts | 153° |
| 2026-04-18 03:43 | 29.17329 | -81.07606 | 33 ft | 3 kts | 98° |
| 2026-04-18 03:43 | 29.17335 | -81.07578 | 33 ft | 3 kts | 63° |
| 2026-04-18 03:44 | 29.17339 | -81.07571 | 33 ft | 0 kts | 63° |
| 2026-04-18 03:44 | 29.17338 | -81.07571 | 33 ft | 0 kts | 63° |
| 2026-04-18 03:45 | 29.17357 | -81.07528 | 33 ft | 21 kts | 64° |
| 2026-04-18 03:45 | 29.17514 | -81.07142 | 33 ft | 85 kts | 66° |
| 2026-04-18 03:45 | 29.17859 | -81.06289 | 33 ft | 147 kts | 65° |
| 2026-04-18 03:45 | 29.18364 | -81.05047 | 62 ft | 196 kts | 65° |
| 2026-04-18 03:46 | 29.18974 | -81.03605 | 581 ft | 203 kts | 64° |
| 2026-04-18 03:46 | 29.19635 | -81.02156 | 1245 ft | 209 kts | 63° |
| 2026-04-18 03:46 | 29.20305 | -81.00707 | 1979 ft | 208 kts | 63° |
| 2026-04-18 03:46 | 29.20989 | -80.99235 | 2408 ft | 213 kts | 63° |
| 2026-04-18 03:47 | 29.21690 | -80.97759 | 2887 ft | 214 kts | 60° |
| 2026-04-18 03:47 | 29.22680 | -80.96469 | 3233 ft | 220 kts | 38° |
| 2026-04-18 03:47 | 29.24081 | -80.95743 | 3452 ft | 224 kts | 8° |
| 2026-04-18 03:47 | 29.25598 | -80.95945 | 3615 ft | 227 kts | 335° |
| 2026-04-18 03:48 | 29.26842 | -80.97029 | 3841 ft | 229 kts | 307° |
| 2026-04-18 03:48 | 29.27755 | -80.98550 | 4020 ft | 235 kts | 302° |
| 2026-04-18 03:48 | 29.28624 | -81.00169 | 4303 ft | 238 kts | 301° |
| 2026-04-18 03:48 | 29.29537 | -81.01765 | 4548 ft | 243 kts | 304° |
| 2026-04-18 03:49 | 29.30489 | -81.03359 | 4796 ft | 249 kts | 304° |
| 2026-04-18 03:49 | 29.31495 | -81.05040 | 5034 ft | 256 kts | 304° |
| 2026-04-18 03:49 | 29.32510 | -81.06744 | 5259 ft | 265 kts | 305° |
| 2026-04-18 03:49 | 29.33555 | -81.08498 | 5549 ft | 275 kts | 305° |
| 2026-04-18 03:50 | 29.34649 | -81.10338 | 5902 ft | 283 kts | 305° |
| 2026-04-18 03:50 | 29.35764 | -81.12213 | 6267 ft | 291 kts | 305° |
| 2026-04-18 03:50 | 29.36930 | -81.14175 | 6646 ft | 299 kts | 305° |
| 2026-04-18 03:50 | 29.38110 | -81.16146 | 7016 ft | 307 kts | 307° |
| 2026-04-18 03:51 | 29.39487 | -81.18025 | 7390 ft | 314 kts | 313° |
| 2026-04-18 03:51 | 29.41003 | -81.19871 | 7764 ft | 322 kts | 314° |
| 2026-04-18 03:51 | 29.42566 | -81.21749 | 8138 ft | 329 kts | 314° |
| 2026-04-18 03:51 | 29.44160 | -81.23675 | 8512 ft | 336 kts | 314° |
| 2026-04-18 03:52 | 29.45774 | -81.25633 | 8884 ft | 343 kts | 314° |
| 2026-04-18 03:52 | 29.47415 | -81.27628 | 9256 ft | 348 kts | 314° |
| 2026-04-18 03:52 | 29.49092 | -81.29672 | 9630 ft | 354 kts | 314° |
| 2026-04-18 03:52 | 29.50790 | -81.31741 | 9989 ft | 361 kts | 314° |
| 2026-04-18 03:53 | 29.52511 | -81.33839 | 10308 ft | 368 kts | 314° |
| 2026-04-18 03:53 | 29.54298 | -81.36019 | 10634 ft | 375 kts | 314° |
| 2026-04-18 03:53 | 29.56078 | -81.38191 | 10952 ft | 382 kts | 313° |
| 2026-04-18 03:53 | 29.57914 | -81.40433 | 11309 ft | 387 kts | 313° |
| 2026-04-18 03:54 | 29.59745 | -81.42669 | 11840 ft | 386 kts | 313° |
| 2026-04-18 03:54 | 29.61574 | -81.44906 | 12306 ft | 388 kts | 313° |
| 2026-04-18 03:54 | 29.63416 | -81.47159 | 12824 ft | 388 kts | 313° |
| 2026-04-18 03:54 | 29.65279 | -81.49440 | 13369 ft | 387 kts | 313° |
| 2026-04-18 03:55 | 29.67095 | -81.51664 | 13902 ft | 387 kts | 313° |
| 2026-04-18 03:55 | 29.68940 | -81.53925 | 14388 ft | 388 kts | 313° |
| 2026-04-18 03:55 | 29.70779 | -81.56181 | 14817 ft | 390 kts | 313° |
| 2026-04-18 03:55 | 29.72660 | -81.58488 | 15231 ft | 393 kts | 313° |
| 2026-04-18 03:56 | 29.74507 | -81.60754 | 15628 ft | 395 kts | 313° |
| 2026-04-18 03:56 | 29.76385 | -81.63061 | 16055 ft | 396 kts | 313° |
| 2026-04-18 03:56 | 29.78270 | -81.65377 | 16428 ft | 399 kts | 313° |
| 2026-04-18 03:56 | 29.80163 | -81.67724 | 16852 ft | 400 kts | 313° |
| 2026-04-18 03:57 | 29.83945 | -81.72420 | 17636 ft | 404 kts | 313° |
| 2026-04-18 03:57 | 29.85871 | -81.74805 | 18041 ft | 406 kts | 313° |
| 2026-04-18 03:57 | 29.87797 | -81.77184 | 18466 ft | 408 kts | 313° |
| 2026-04-18 03:58 | 29.89714 | -81.79550 | 18872 ft | 410 kts | 313° |
| 2026-04-18 03:58 | 29.91659 | -81.81952 | 19272 ft | 412 kts | 313° |
| 2026-04-18 03:58 | 29.93629 | -81.84385 | 19674 ft | 415 kts | 313° |
| 2026-04-18 03:58 | 29.95610 | -81.86835 | 20076 ft | 418 kts | 313° |
| 2026-04-18 03:59 | 29.97592 | -81.89284 | 20476 ft | 420 kts | 313° |
| 2026-04-18 03:59 | 29.99585 | -81.91752 | 20876 ft | 423 kts | 313° |
| 2026-04-18 03:59 | 30.01574 | -81.94213 | 21272 ft | 426 kts | 313° |
| 2026-04-18 03:59 | 30.03596 | -81.96719 | 21673 ft | 428 kts | 313° |
| 2026-04-18 04:00 | 30.05635 | -81.99246 | 22074 ft | 431 kts | 313° |
| 2026-04-18 04:00 | 30.07669 | -82.01768 | 22472 ft | 434 kts | 313° |
| 2026-04-18 04:00 | 30.09723 | -82.04317 | 22872 ft | 436 kts | 313° |
| 2026-04-18 04:00 | 30.11779 | -82.06872 | 23271 ft | 439 kts | 313° |
| 2026-04-18 04:01 | 30.13871 | -82.09474 | 23674 ft | 442 kts | 313° |
| 2026-04-18 04:01 | 30.15947 | -82.12059 | 24071 ft | 445 kts | 313° |
| 2026-04-18 04:01 | 30.18078 | -82.14712 | 24476 ft | 447 kts | 313° |
| 2026-04-18 04:01 | 30.20169 | -82.17316 | 24871 ft | 449 kts | 313° |
| 2026-04-18 04:02 | 30.22292 | -82.19961 | 25271 ft | 451 kts | 313° |
| 2026-04-18 04:02 | 30.24423 | -82.22618 | 25671 ft | 453 kts | 313° |
| 2026-04-18 04:02 | 30.26560 | -82.25285 | 26070 ft | 454 kts | 313° |
| 2026-04-18 04:02 | 30.28728 | -82.27992 | 26475 ft | 456 kts | 313° |
| 2026-04-18 04:03 | 30.30876 | -82.30676 | 26874 ft | 457 kts | 313° |
| 2026-04-18 04:03 | 30.33010 | -82.33344 | 27270 ft | 458 kts | 313° |
| 2026-04-18 04:03 | 30.35160 | -82.36034 | 27668 ft | 458 kts | 313° |
| 2026-04-18 04:03 | 30.37310 | -82.38725 | 28067 ft | 458 kts | 312° |
| 2026-04-18 04:04 | 30.39484 | -82.41448 | 28470 ft | 456 kts | 312° |
| 2026-04-18 04:04 | 30.41630 | -82.44140 | 28866 ft | 455 kts | 312° |
| 2026-04-18 04:04 | 30.43750 | -82.46799 | 29173 ft | 455 kts | 312° |
| 2026-04-18 04:04 | 30.45905 | -82.49505 | 29483 ft | 454 kts | 312° |
| 2026-04-18 04:05 | 30.47899 | -82.52313 | 29775 ft | 452 kts | 303° |
| 2026-04-18 04:05 | 30.49328 | -82.55502 | 30040 ft | 452 kts | 293° |
| 2026-04-18 04:05 | 30.50283 | -82.58961 | 30309 ft | 453 kts | 286° |
| 2026-04-18 04:05 | 30.50942 | -82.62536 | 30576 ft | 453 kts | 283° |
| 2026-04-18 04:06 | 30.51432 | -82.66149 | 30802 ft | 453 kts | 280° |
| 2026-04-18 04:06 | 30.51816 | -82.69740 | 31016 ft | 453 kts | 279° |
| 2026-04-18 04:06 | 30.52155 | -82.73334 | 31230 ft | 452 kts | 279° |
| 2026-04-18 04:06 | 30.52486 | -82.76985 | 31448 ft | 451 kts | 279° |
| 2026-04-18 04:07 | 30.52809 | -82.80562 | 31693 ft | 448 kts | 279° |
| 2026-04-18 04:07 | 30.53136 | -82.84162 | 31982 ft | 445 kts | 279° |
| 2026-04-18 04:07 | 30.53459 | -82.87708 | 32077 ft | 446 kts | 279° |
| 2026-04-18 04:08 | 30.54114 | -82.94852 | 32100 ft | 450 kts | 279° |
| 2026-04-18 04:08 | 30.54779 | -83.02125 | 32101 ft | 456 kts | 279° |
| 2026-04-18 04:09 | 30.55443 | -83.09440 | 32101 ft | 460 kts | 279° |
| 2026-04-18 04:09 | 30.56110 | -83.16846 | 32100 ft | 463 kts | 279° |
| 2026-04-18 04:10 | 30.56771 | -83.24220 | 32099 ft | 463 kts | 279° |
| 2026-04-18 04:10 | 30.57431 | -83.31649 | 32098 ft | 461 kts | 279° |
| 2026-04-18 04:11 | 30.58082 | -83.39012 | 32097 ft | 462 kts | 279° |
| 2026-04-18 04:11 | 30.58733 | -83.46407 | 32096 ft | 462 kts | 278° |
| 2026-04-18 04:12 | 30.59383 | -83.53857 | 32095 ft | 461 kts | 278° |
| 2026-04-18 04:12 | 30.60023 | -83.61236 | 32095 ft | 462 kts | 278° |
| 2026-04-18 04:13 | 30.60651 | -83.68645 | 32095 ft | 464 kts | 278° |
| 2026-04-18 04:13 | 30.61250 | -83.76082 | 32093 ft | 463 kts | 278° |
| 2026-04-18 04:14 | 30.61864 | -83.83513 | 32092 ft | 462 kts | 278° |
| 2026-04-18 04:14 | 30.62485 | -83.90919 | 32092 ft | 463 kts | 278° |
| 2026-04-18 04:15 | 30.63104 | -83.98307 | 32091 ft | 463 kts | 278° |
| 2026-04-18 04:15 | 30.63722 | -84.05739 | 32091 ft | 462 kts | 278° |
| 2026-04-18 04:16 | 30.64335 | -84.13152 | 32094 ft | 463 kts | 278° |
| 2026-04-18 04:16 | 30.64947 | -84.20601 | 32096 ft | 463 kts | 278° |
| 2026-04-18 04:17 | 30.65551 | -84.28014 | 32099 ft | 463 kts | 278° |
| 2026-04-18 04:17 | 30.66153 | -84.35443 | 32099 ft | 462 kts | 278° |
| 2026-04-18 04:18 | 30.66747 | -84.42844 | 32099 ft | 462 kts | 278° |
| 2026-04-18 04:18 | 30.67339 | -84.50256 | 32099 ft | 463 kts | 277° |
| 2026-04-18 04:19 | 30.67926 | -84.57674 | 32099 ft | 462 kts | 277° |
| 2026-04-18 04:19 | 30.68508 | -84.65074 | 32100 ft | 462 kts | 277° |
| 2026-04-18 04:20 | 30.69060 | -84.72549 | 32100 ft | 462 kts | 277° |
| 2026-04-18 04:20 | 30.69608 | -84.79971 | 32100 ft | 462 kts | 277° |
| 2026-04-18 04:21 | 30.70167 | -84.87361 | 32100 ft | 462 kts | 277° |
| 2026-04-18 04:21 | 30.70731 | -84.94778 | 32100 ft | 462 kts | 277° |
| 2026-04-18 04:22 | 30.71291 | -85.02175 | 32101 ft | 461 kts | 277° |
| 2026-04-18 04:22 | 30.71849 | -85.09585 | 32104 ft | 461 kts | 277° |
| 2026-04-18 04:23 | 30.72402 | -85.17001 | 32107 ft | 461 kts | 277° |
| 2026-04-18 04:23 | 30.72952 | -85.24432 | 32109 ft | 461 kts | 277° |
| 2026-04-18 04:24 | 30.73493 | -85.31802 | 32109 ft | 461 kts | 277° |
| 2026-04-18 04:24 | 30.74031 | -85.39188 | 32109 ft | 461 kts | 276° |
| 2026-04-18 04:25 | 30.74566 | -85.46589 | 32109 ft | 461 kts | 276° |
| 2026-04-18 04:25 | 30.75099 | -85.54013 | 32110 ft | 462 kts | 276° |
| 2026-04-18 04:26 | 30.75627 | -85.61442 | 32109 ft | 461 kts | 276° |
| 2026-04-18 04:26 | 30.76140 | -85.68871 | 32110 ft | 461 kts | 276° |
| 2026-04-18 04:27 | 30.76623 | -85.76305 | 32109 ft | 462 kts | 276° |
| 2026-04-18 04:27 | 30.77120 | -85.83707 | 32109 ft | 461 kts | 276° |
| 2026-04-18 04:28 | 30.78383 | -86.02367 | 32109 ft | 461 kts | 276° |
| 2026-04-18 04:28 | 30.80577 | -86.31859 | 32109 ft | 460 kts | 277° |
| 2026-04-18 04:29 | 30.83518 | -86.61282 | 32109 ft | 460 kts | 277° |
| 2026-04-18 04:29 | 30.86326 | -86.91026 | 32109 ft | 461 kts | 276° |
| 2026-04-18 04:30 | 30.89024 | -87.20687 | 32069 ft | 460 kts | 276° |
| 2026-04-18 04:30 | 30.91709 | -87.50340 | 32069 ft | 460 kts | 276° |
| 2026-04-18 04:31 | 30.94300 | -87.80083 | 32069 ft | 461 kts | 275° |
| 2026-04-18 04:31 | 30.96737 | -88.09783 | 32080 ft | 460 kts | 275° |
| 2026-04-18 04:32 | 30.99176 | -88.39312 | 32079 ft | 458 kts | 275° |
| 2026-04-18 04:32 | 31.01586 | -88.68869 | 32087 ft | 459 kts | 275° |
| 2026-04-18 04:33 | 31.03793 | -88.98391 | 32079 ft | 458 kts | 274° |
| 2026-04-18 04:33 | 31.05997 | -89.27905 | 32078 ft | 457 kts | 275° |
| 2026-04-18 04:34 | 31.11909 | -89.68301 | 32085 ft | 458 kts | 279° |
| 2026-04-18 04:34 | 31.20783 | -90.26753 | 32070 ft | 456 kts | 278° |
| 2026-04-18 04:35 | 31.29472 | -90.84985 | 32069 ft | 454 kts | 277° |
| 2026-04-18 04:35 | 31.37697 | -91.42678 | 32056 ft | 452 kts | 277° |
| 2026-04-18 04:36 | 31.44699 | -92.01054 | 32058 ft | 449 kts | 274° |
| 2026-04-18 04:36 | 31.46360 | -92.19996 | 32011 ft | 446 kts | 273° |
| 2026-04-18 04:37 | 31.49498 | -92.56599 | 32011 ft | 449 kts | 274° |
| 2026-04-18 04:37 | 31.54420 | -93.14616 | 32007 ft | 449 kts | 273° |
| 2026-04-18 04:38 | 31.59181 | -93.72712 | 32029 ft | 444 kts | 272° |
| 2026-04-18 04:38 | 31.63456 | -94.29903 | 31979 ft | 442 kts | 272° |
| 2026-04-18 04:39 | 31.67613 | -94.87434 | 31986 ft | 444 kts | 271° |
| 2026-04-18 04:39 | 31.71459 | -95.45553 | 31957 ft | 442 kts | 271° |
| 2026-04-18 04:40 | 31.75041 | -96.02801 | 31951 ft | 435 kts | 270° |
| 2026-04-18 04:40 | 31.78330 | -96.59426 | 31940 ft | 436 kts | 270° |
| 2026-04-18 04:41 | 31.81314 | -97.16394 | 31905 ft | 440 kts | 269° |
| 2026-04-18 04:41 | 31.84179 | -97.73496 | 31877 ft | 434 kts | 268° |
| 2026-04-18 04:42 | 31.86611 | -98.29860 | 31903 ft | 430 kts | 268° |
| 2026-04-18 04:42 | 31.88902 | -98.86307 | 31904 ft | 436 kts | 268° |
| 2026-04-18 04:43 | 31.90879 | -99.43632 | 31900 ft | 440 kts | 268° |
| 2026-04-18 04:43 | 31.92667 | -100.00680 | 31890 ft | 436 kts | 267° |
| 2026-04-18 04:44 | 31.94192 | -100.57607 | 31873 ft | 435 kts | 267° |
| 2026-04-18 04:44 | 31.96264 | -101.14523 | 31925 ft | 435 kts | 269° |
| 2026-04-18 04:45 | 32.00209 | -101.70737 | 31935 ft | 425 kts | 269° |
| 2026-04-18 04:45 | 32.03677 | -102.25676 | 31936 ft | 422 kts | 268° |
| 2026-04-18 04:46 | 32.07037 | -102.81690 | 31938 ft | 429 kts | 268° |
| 2026-04-18 04:46 | 32.10038 | -103.38192 | 31938 ft | 436 kts | 268° |
| 2026-04-18 04:47 | 32.14068 | -103.95582 | 31938 ft | 438 kts | 271° |
| 2026-04-18 04:47 | 32.20866 | -104.52433 | 31930 ft | 440 kts | 272° |
| 2026-04-18 04:48 | 32.27465 | -105.09904 | 31976 ft | 448 kts | 272° |
| 2026-04-18 04:48 | 32.33937 | -105.68610 | 32018 ft | 454 kts | 271° |
| 2026-04-18 04:49 | 32.40025 | -106.27670 | 32035 ft | 453 kts | 271° |
| 2026-04-18 04:49 | 32.45971 | -106.87286 | 32052 ft | 459 kts | 271° |
| 2026-04-18 04:50 | 32.51583 | -107.47554 | 32061 ft | 468 kts | 272° |
| 2026-04-18 04:50 | 32.57079 | -108.09268 | 32053 ft | 470 kts | 272° |
| 2026-04-18 04:51 | 32.62387 | -108.70814 | 32128 ft | 473 kts | 273° |
| 2026-04-18 04:51 | 32.68456 | -109.33628 | 31993 ft | 481 kts | 275° |
| 2026-04-18 04:52 | 32.74403 | -109.96707 | 31999 ft | 487 kts | 275° |
| 2026-04-18 04:52 | 32.77223 | -110.28834 | 32122 ft | 487 kts | 275° |
| 2026-04-18 04:52 | 32.79992 | -110.60535 | 32118 ft | 484 kts | 275° |
| 2026-04-18 04:53 | 32.85195 | -111.24514 | 31985 ft | 483 kts | 275° |
| 2026-04-18 04:53 | 32.89171 | -111.75400 | 31990 ft | 488 kts | 274° |
| 2026-04-18 04:54 | 32.89703 | -111.83373 | 31989 ft | 485 kts | 274° |
| 2026-04-18 04:54 | 32.90263 | -111.91386 | 31986 ft | 485 kts | 275° |
| 2026-04-18 04:55 | 32.90844 | -111.99368 | 31980 ft | 485 kts | 275° |
| 2026-04-18 04:55 | 32.91429 | -112.07358 | 31973 ft | 486 kts | 275° |
| 2026-04-18 04:56 | 32.92296 | -112.19291 | 31969 ft | 485 kts | 275° |
| 2026-04-18 04:56 | 32.92870 | -112.27283 | 31969 ft | 485 kts | 275° |
| 2026-04-18 04:57 | 32.93370 | -112.35274 | 31966 ft | 485 kts | 271° |
| 2026-04-18 04:57 | 32.92893 | -112.43278 | 31970 ft | 486 kts | 264° |
| 2026-04-18 04:58 | 32.92117 | -112.51226 | 31969 ft | 486 kts | 264° |
| 2026-04-18 04:58 | 32.91372 | -112.59235 | 31969 ft | 486 kts | 265° |
| 2026-04-18 04:59 | 32.90663 | -112.67176 | 31970 ft | 486 kts | 264° |
| 2026-04-18 04:59 | 32.89915 | -112.75198 | 31970 ft | 486 kts | 264° |
| 2026-04-18 05:00 | 32.89188 | -112.83148 | 31970 ft | 486 kts | 264° |
| 2026-04-18 05:00 | 32.88468 | -112.91166 | 31970 ft | 487 kts | 264° |
| 2026-04-18 05:01 | 32.87748 | -112.99170 | 31970 ft | 488 kts | 264° |
| 2026-04-18 05:01 | 32.87028 | -113.07134 | 31970 ft | 488 kts | 264° |
| 2026-04-18 05:02 | 32.86298 | -113.15146 | 31969 ft | 488 kts | 264° |
| 2026-04-18 05:02 | 32.85564 | -113.23141 | 31970 ft | 489 kts | 264° |
| 2026-04-18 05:03 | 32.84824 | -113.31155 | 31970 ft | 489 kts | 264° |
| 2026-04-18 05:03 | 32.84080 | -113.39140 | 31969 ft | 486 kts | 264° |
| 2026-04-18 05:04 | 32.83333 | -113.47109 | 31970 ft | 487 kts | 264° |
| 2026-04-18 05:04 | 32.82575 | -113.55142 | 31969 ft | 487 kts | 264° |
| 2026-04-18 05:05 | 32.81819 | -113.63090 | 31969 ft | 487 kts | 264° |
| 2026-04-18 05:05 | 32.81031 | -113.71085 | 31970 ft | 487 kts | 264° |
| 2026-04-18 05:06 | 32.80230 | -113.79024 | 31969 ft | 487 kts | 264° |
| 2026-04-18 05:06 | 32.79445 | -113.86976 | 31968 ft | 482 kts | 264° |
| 2026-04-18 05:07 | 32.78677 | -113.94813 | 31967 ft | 475 kts | 264° |
| 2026-04-18 05:07 | 32.77921 | -114.02508 | 31966 ft | 463 kts | 264° |
| 2026-04-18 05:08 | 32.77513 | -114.10028 | 31974 ft | 452 kts | 272° |
| 2026-04-18 05:08 | 32.77826 | -114.17407 | 31980 ft | 447 kts | 274° |
| 2026-04-18 05:09 | 32.78186 | -114.24787 | 31988 ft | 449 kts | 274° |
| 2026-04-18 05:09 | 32.78507 | -114.32196 | 31989 ft | 449 kts | 273° |
| 2026-04-18 05:10 | 32.79218 | -114.39532 | 31990 ft | 449 kts | 283° |
| 2026-04-18 05:10 | 32.80953 | -114.46609 | 31990 ft | 450 kts | 287° |
| 2026-04-18 05:11 | 32.82907 | -114.53683 | 31989 ft | 449 kts | 288° |
| 2026-04-18 05:11 | 32.84861 | -114.60728 | 31989 ft | 449 kts | 288° |
| 2026-04-18 05:12 | 32.86788 | -114.67753 | 31867 ft | 452 kts | 287° |
| 2026-04-18 05:12 | 32.87476 | -114.71397 | 31639 ft | 451 kts | 277° |
| 2026-04-18 05:12 | 32.87719 | -114.75085 | 31392 ft | 448 kts | 272° |
| 2026-04-18 05:13 | 32.87759 | -114.78778 | 31126 ft | 446 kts | 270° |
| 2026-04-18 05:13 | 32.87716 | -114.82465 | 30740 ft | 444 kts | 269° |
| 2026-04-18 05:13 | 32.87642 | -114.86086 | 30359 ft | 442 kts | 269° |
| 2026-04-18 05:13 | 32.87558 | -114.89731 | 29972 ft | 439 kts | 269° |
| 2026-04-18 05:14 | 32.87475 | -114.93323 | 29590 ft | 437 kts | 269° |
| 2026-04-18 05:14 | 32.87391 | -114.96948 | 29202 ft | 435 kts | 269° |
| 2026-04-18 05:14 | 32.87309 | -115.00502 | 28821 ft | 433 kts | 269° |
| 2026-04-18 05:14 | 32.87226 | -115.04080 | 28434 ft | 431 kts | 269° |
| 2026-04-18 05:15 | 32.87145 | -115.07589 | 28047 ft | 430 kts | 269° |
| 2026-04-18 05:15 | 32.87062 | -115.11150 | 27536 ft | 430 kts | 269° |
| 2026-04-18 05:15 | 32.86978 | -115.14713 | 27023 ft | 429 kts | 269° |
| 2026-04-18 05:15 | 32.86894 | -115.18221 | 26518 ft | 428 kts | 269° |
| 2026-04-18 05:16 | 32.86808 | -115.21767 | 26005 ft | 427 kts | 269° |
| 2026-04-18 05:16 | 32.86723 | -115.25265 | 25580 ft | 423 kts | 269° |
| 2026-04-18 05:16 | 32.86637 | -115.28742 | 25178 ft | 419 kts | 269° |
| 2026-04-18 05:16 | 32.86543 | -115.32158 | 24797 ft | 414 kts | 268° |
| 2026-04-18 05:17 | 32.86270 | -115.35513 | 24425 ft | 409 kts | 264° |
| 2026-04-18 05:17 | 32.85858 | -115.38856 | 24113 ft | 402 kts | 262° |
| 2026-04-18 05:17 | 32.85412 | -115.42082 | 24012 ft | 395 kts | 262° |
| 2026-04-18 05:17 | 32.84952 | -115.45328 | 23994 ft | 396 kts | 262° |
| 2026-04-18 05:18 | 32.84490 | -115.48536 | 23991 ft | 399 kts | 261° |
| 2026-04-18 05:18 | 32.83980 | -115.51788 | 23954 ft | 402 kts | 261° |
| 2026-04-18 05:18 | 32.83454 | -115.55027 | 23700 ft | 402 kts | 261° |
| 2026-04-18 05:18 | 32.82923 | -115.58260 | 23448 ft | 396 kts | 261° |
| 2026-04-18 05:19 | 32.82397 | -115.61458 | 23193 ft | 387 kts | 261° |
| 2026-04-18 05:19 | 32.81886 | -115.64566 | 22940 ft | 378 kts | 261° |
| 2026-04-18 05:19 | 32.81385 | -115.67569 | 22689 ft | 369 kts | 260° |
| 2026-04-18 05:19 | 32.80880 | -115.70533 | 22438 ft | 365 kts | 260° |
| 2026-04-18 05:20 | 32.80385 | -115.73474 | 22140 ft | 365 kts | 260° |
| 2026-04-18 05:20 | 32.79893 | -115.76434 | 21747 ft | 364 kts | 260° |
| 2026-04-18 05:20 | 32.79406 | -115.79376 | 21352 ft | 361 kts | 260° |
| 2026-04-18 05:20 | 32.78926 | -115.82285 | 20960 ft | 358 kts | 260° |
| 2026-04-18 05:21 | 32.78524 | -115.85181 | 20568 ft | 356 kts | 264° |
| 2026-04-18 05:21 | 32.78258 | -115.88093 | 20175 ft | 354 kts | 266° |
| 2026-04-18 05:21 | 32.78041 | -115.90992 | 19783 ft | 353 kts | 266° |
| 2026-04-18 05:21 | 32.77832 | -115.93884 | 19390 ft | 350 kts | 266° |
| 2026-04-18 05:22 | 32.77625 | -115.96725 | 18997 ft | 344 kts | 266° |
| 2026-04-18 05:22 | 32.77420 | -115.99496 | 18608 ft | 337 kts | 266° |
| 2026-04-18 05:22 | 32.77215 | -116.02247 | 18214 ft | 331 kts | 266° |
| 2026-04-18 05:22 | 32.77012 | -116.04959 | 17818 ft | 325 kts | 266° |
| 2026-04-18 05:23 | 32.76814 | -116.07595 | 17426 ft | 320 kts | 266° |
| 2026-04-18 05:23 | 32.76615 | -116.10218 | 17033 ft | 318 kts | 266° |
| 2026-04-18 05:23 | 32.76419 | -116.12814 | 16641 ft | 316 kts | 266° |
| 2026-04-18 05:23 | 32.76223 | -116.15408 | 16248 ft | 314 kts | 266° |
| 2026-04-18 05:24 | 32.76027 | -116.17969 | 15857 ft | 313 kts | 266° |
| 2026-04-18 05:24 | 32.75833 | -116.20521 | 15466 ft | 311 kts | 266° |
| 2026-04-18 05:24 | 32.75637 | -116.23076 | 15071 ft | 309 kts | 266° |
| 2026-04-18 05:24 | 32.75443 | -116.25603 | 14680 ft | 307 kts | 266° |
| 2026-04-18 05:25 | 32.75249 | -116.28123 | 14286 ft | 305 kts | 266° |
| 2026-04-18 05:25 | 32.75057 | -116.30619 | 13894 ft | 303 kts | 266° |
| 2026-04-18 05:25 | 32.74865 | -116.33113 | 13499 ft | 302 kts | 267° |
| 2026-04-18 05:25 | 32.74675 | -116.35568 | 13109 ft | 300 kts | 267° |
| 2026-04-18 05:26 | 32.74486 | -116.38004 | 12716 ft | 294 kts | 267° |
| 2026-04-18 05:26 | 32.74299 | -116.40402 | 12319 ft | 287 kts | 267° |
| 2026-04-18 05:26 | 32.74118 | -116.42718 | 11930 ft | 283 kts | 267° |
| 2026-04-18 05:26 | 32.73936 | -116.45056 | 11534 ft | 282 kts | 267° |
| 2026-04-18 05:27 | 32.73758 | -116.47343 | 11173 ft | 280 kts | 266° |
| 2026-04-18 05:27 | 32.73573 | -116.49654 | 10908 ft | 281 kts | 266° |
| 2026-04-18 05:27 | 32.73364 | -116.51949 | 10641 ft | 281 kts | 265° |
| 2026-04-18 05:27 | 32.73145 | -116.54247 | 10379 ft | 274 kts | 265° |
| 2026-04-18 05:28 | 32.72930 | -116.56460 | 10122 ft | 264 kts | 265° |
| 2026-04-18 05:28 | 32.72725 | -116.58581 | 9849 ft | 253 kts | 265° |
| 2026-04-18 05:28 | 32.72532 | -116.60576 | 9607 ft | 241 kts | 265° |
| 2026-04-18 05:28 | 32.72342 | -116.62538 | 9332 ft | 233 kts | 264° |
| 2026-04-18 05:29 | 32.72158 | -116.64433 | 9064 ft | 231 kts | 264° |
| 2026-04-18 05:29 | 32.71988 | -116.66299 | 8793 ft | 226 kts | 264° |
| 2026-04-18 05:29 | 32.71830 | -116.68142 | 8523 ft | 224 kts | 265° |
| 2026-04-18 05:29 | 32.71679 | -116.69993 | 8175 ft | 222 kts | 265° |
| 2026-04-18 05:30 | 32.71536 | -116.71785 | 7834 ft | 219 kts | 265° |
| 2026-04-18 05:30 | 32.71393 | -116.73596 | 7489 ft | 218 kts | 265° |
| 2026-04-18 05:30 | 32.71253 | -116.75372 | 7149 ft | 218 kts | 265° |
| 2026-04-18 05:30 | 32.71113 | -116.77150 | 6807 ft | 217 kts | 265° |
| 2026-04-18 05:31 | 32.70972 | -116.78940 | 6460 ft | 215 kts | 265° |
| 2026-04-18 05:31 | 32.70832 | -116.80690 | 6119 ft | 214 kts | 264° |
| 2026-04-18 05:31 | 32.70492 | -116.82391 | 5781 ft | 214 kts | 252° |
| 2026-04-18 05:31 | 32.70016 | -116.84056 | 5504 ft | 211 kts | 251° |
| 2026-04-18 05:32 | 32.69515 | -116.85716 | 5252 ft | 212 kts | 251° |
| 2026-04-18 05:32 | 32.69019 | -116.87330 | 5050 ft | 208 kts | 251° |
| 2026-04-18 05:32 | 32.68537 | -116.88948 | 4998 ft | 209 kts | 251° |
| 2026-04-18 05:32 | 32.68054 | -116.90585 | 4838 ft | 211 kts | 251° |
| 2026-04-18 05:33 | 32.67567 | -116.92234 | 4640 ft | 209 kts | 251° |
| 2026-04-18 05:33 | 32.67347 | -116.93899 | 4431 ft | 206 kts | 281° |
| 2026-04-18 05:33 | 32.67695 | -116.95574 | 4223 ft | 207 kts | 286° |
| 2026-04-18 05:33 | 32.68073 | -116.97205 | 3987 ft | 204 kts | 286° |
| 2026-04-18 05:34 | 32.68447 | -116.98831 | 3738 ft | 206 kts | 285° |
| 2026-04-18 05:34 | 32.68800 | -117.00442 | 3484 ft | 197 kts | 285° |
| 2026-04-18 05:34 | 32.69138 | -117.01920 | 3295 ft | 177 kts | 286° |
| 2026-04-18 05:34 | 32.69464 | -117.03300 | 3119 ft | 166 kts | 287° |
| 2026-04-18 05:35 | 32.69782 | -117.04572 | 2916 ft | 162 kts | 287° |
| 2026-04-18 05:35 | 32.70111 | -117.05875 | 2636 ft | 165 kts | 287° |
| 2026-04-18 05:35 | 32.70446 | -117.07178 | 2412 ft | 164 kts | 288° |
| 2026-04-18 05:35 | 32.70786 | -117.08453 | 2116 ft | 163 kts | 288° |
| 2026-04-18 05:36 | 32.71120 | -117.09731 | 1798 ft | 161 kts | 287° |
| 2026-04-18 05:36 | 32.71440 | -117.11011 | 1518 ft | 163 kts | 287° |
| 2026-04-18 05:36 | 32.71757 | -117.12310 | 1239 ft | 164 kts | 286° |
| 2026-04-18 05:36 | 32.72063 | -117.13590 | 952 ft | 162 kts | 285° |
| 2026-04-18 05:37 | 32.72366 | -117.14866 | 660 ft | 159 kts | 286° |
| 2026-04-18 05:37 | 32.72679 | -117.16131 | 396 ft | 158 kts | 286° |
| 2026-04-18 05:37 | 32.72975 | -117.17374 | 125 ft | 159 kts | 285° |
| 2026-04-18 05:37 | 32.73267 | -117.18592 | 28 ft | 139 kts | 286° |
| 2026-04-18 05:38 | 32.73492 | -117.19521 | 27 ft | 92 kts | 286° |
| 2026-04-18 05:38 | 32.73608 | -117.20007 | 27 ft | 30 kts | 285° |
| 2026-04-18 05:38 | 32.73657 | -117.20216 | 27 ft | 23 kts | 285° |
| 2026-04-18 05:38 | 32.73687 | -117.20335 | 27 ft | 9 kts | 283° |
| 2026-04-18 05:39 | 32.73667 | -117.20404 | 27 ft | 9 kts | 216° |
| 2026-04-18 05:39 | 32.73611 | -117.20409 | 27 ft | 8 kts | 143° |
| 2026-04-18 05:39 | 32.73587 | -117.20348 | 27 ft | 7 kts | 107° |
| 2026-04-18 05:39 | 32.73571 | -117.20286 | 27 ft | 8 kts | 106° |
| 2026-04-18 05:40 | 32.73557 | -117.20222 | 27 ft | 8 kts | 105° |
| 2026-04-18 05:40 | 32.73541 | -117.20154 | 27 ft | 8 kts | 104° |
| 2026-04-18 05:40 | 32.73526 | -117.20085 | 27 ft | 8 kts | 106° |
| 2026-04-18 05:40 | 32.73508 | -117.20014 | 27 ft | 9 kts | 107° |
| 2026-04-18 05:41 | 32.73489 | -117.19942 | 27 ft | 9 kts | 107° |
| 2026-04-18 05:41 | 32.73471 | -117.19867 | 27 ft | 9 kts | 106° |
| 2026-04-18 05:41 | 32.73452 | -117.19789 | 27 ft | 9 kts | 106° |
| 2026-04-18 05:41 | 32.73432 | -117.19710 | 27 ft | 10 kts | 106° |
| 2026-04-18 05:42 | 32.73412 | -117.19627 | 27 ft | 10 kts | 106° |
| 2026-04-18 05:42 | 32.73392 | -117.19542 | 27 ft | 10 kts | 105° |
| 2026-04-18 05:42 | 32.73371 | -117.19453 | 27 ft | 11 kts | 105° |
| 2026-04-18 05:42 | 32.73351 | -117.19364 | 27 ft | 11 kts | 105° |
| 2026-04-18 05:43 | 32.73329 | -117.19272 | 27 ft | 11 kts | 107° |
| 2026-04-18 05:43 | 32.73305 | -117.19177 | 27 ft | 12 kts | 107° |
| 2026-04-18 05:43 | 32.73281 | -117.19081 | 27 ft | 12 kts | 106° |
| 2026-04-18 05:43 | 32.73258 | -117.18990 | 27 ft | 6 kts | 106° |
| 2026-04-18 05:44 | 32.73246 | -117.18939 | 27 ft | 6 kts | 106° |
| 2026-04-18 05:44 | 32.73238 | -117.18890 | 27 ft | 6 kts | 85° |
| 2026-04-18 05:44 | 32.73274 | -117.18847 | 27 ft | 9 kts | 19° |
| 2026-04-18 05:44 | 32.73346 | -117.18825 | 27 ft | 11 kts | 11° |
| 2026-04-18 05:45 | 32.73418 | -117.18792 | 27 ft | 11 kts | 37° |
| 2026-04-18 05:45 | 32.73460 | -117.18728 | 27 ft | 7 kts | 75° |
| 2026-04-18 05:45 | 32.73476 | -117.18665 | 27 ft | 6 kts | 77° |
| 2026-04-18 05:45 | 32.73474 | -117.18629 | 27 ft | 4 kts | 106° |
| 2026-04-18 05:46 | 32.73473 | -117.18622 | 27 ft | 0 kts | 106° |